MPSM

Scarlett Martínez International Airport

Río Hato, Panama
TAF MPSM 192300Z 2000/2106 31006KT 9999 FEW016CB SCT090 TEMPO 2007/2011 00000KT TEMPO 2018/2022 22010KT 6000 TSRA SCT015CB BKN090
Issued Valid From Valid To
Sep-19 @ 23:00 UTC
(2 hours ago)
Sep-20 @ 00:00 UTC
(42 minutes ago)
Sep-21 @ 06:00 UTC
(-1 days ago)
Sep-20 @ 00:00 to Sep-21 @ 06:00
TAF MPSM 192300Z 2000/2106 31006KT 9999 FEW016CB SCT090
Wind Visibility Clouds
310° at 6 knots 10,000+ meters
  • Few at 1,600' AGL
  • Scattered at 9,000' AGL
Temporary Sep-20 @ 07:00 to Sep-20 @ 11:00
TEMPO 2007/2011 00000KT
Temporary Sep-20 @ 18:00 to Sep-20 @ 22:00
TEMPO 2018/2022 22010KT 6000 TSRA SCT015CB BKN090
Wind Visibility Clouds Conditions
220° at 10 knots 6,003 meters
  • Scattered at 1,500' AGL
  • Broken at 9,000' AGL
  • Thunderstorm
  • Rain
TAF MPSM 192300Z 2000/2106 31006KT 9999 FEW016CB SCT090 TEMPO 2007/2011 00000KT TEMPO 2018/2022 22010KT 6000 TSRA SCT015CB BKN090
Issued Sep-19 @ 23:00 UTC
(2 hours ago)
Valid From Sep-20 @ 00:00 UTC
(42 minutes ago)
Valid To Sep-21 @ 06:00 UTC
(-1 days ago)
Sep-20 @ 00:00 - Sep-21 @ 06:00
Wind Visibility
310° at 6 knots 10,000+ meters
Clouds
  • Few at 1,600' AGL
  • Scattered at 9,000' AGL
Temporary Sep-20 @ 07:00 - Sep-20 @ 11:00
Temporary Sep-20 @ 18:00 - Sep-20 @ 22:00
Wind Visibility
220° at 10 knots 6,003 meters
Clouds
  • Scattered at 1,500' AGL
  • Broken at 9,000' AGL
Conditions
  • Thunderstorm
  • Rain